Time;durP1;ratioP1;P1;durP2;ratioP2;P2;SDS_P1;SDS_P2;PMS_P1;PMS_P2;Temp;Humidity;BMP_temperature;BMP_pressure;BME280_temperature;BME280_humidity;BME280_pressure;Samples;Min_cycle;Max_cycle;Signal;HPM_P1;HPM_P2
2022/12/13 00:00:13;;;;;;;;;24.00;23.00;;;;;1.09;66.81;100114.69;5110182;27;64513;-82
2022/12/13 00:02:38;;;;;;;;;21.75;19.50;;;;;1.15;66.95;100123.72;5109561;27;45148;-84
2022/12/13 00:05:04;;;;;;;;;24.00;24.00;;;;;1.15;66.88;100126.31;5117295;27;54142;-82
2022/12/13 00:07:29;;;;;;;;;24.00;24.00;;;;;0.90;66.76;100079.03;5109274;27;45490;-83
2022/12/13 00:09:54;;;;;;;;;21.67;21.00;;;;;1.14;66.49;100113.28;5107436;27;60864;-82
2022/12/13 00:12:20;;;;;;;;;22.33;21.33;;;;;1.02;66.53;100095.28;5098429;27;57178;-83
2022/12/13 00:14:45;;;;;;;;;20.33;20.33;;;;;1.06;66.68;100093.78;5127945;27;51457;-83
2022/12/13 00:17:10;;;;;;;;;19.67;17.67;;;;;0.95;66.96;100078.50;5117880;27;56444;-82
2022/12/13 00:19:35;;;;;;;;;19.67;19.67;;;;;0.88;66.63;100068.56;5089754;27;45163;-82
2022/12/13 00:22:01;;;;;;;;;25.50;22.50;;;;;0.85;66.51;100062.31;5108627;27;45064;-83
2022/12/13 00:24:26;;;;;;;;;24.00;21.00;;;;;0.91;66.44;100076.53;5108358;27;45092;-83
2022/12/13 00:26:53;;;;;;;;;27.67;19.33;;;;;0.87;66.42;100064.19;5108695;27;45335;-83
2022/12/13 00:29:19;;;;;;;;;24.75;20.00;;;;;1.08;66.39;100092.19;5108370;27;45233;-84
2022/12/13 00:31:44;;;;;;;;;28.00;26.00;;;;;1.01;66.62;100080.56;5111503;27;45019;-82
2022/12/13 00:34:09;;;;;;;;;22.00;22.00;;;;;0.89;66.78;100062.59;5119151;27;45216;-83
2022/12/13 00:36:35;;;;;;;;;23.75;22.50;;;;;1.03;66.57;100087.63;5132189;27;45864;-83
2022/12/13 00:39:00;;;;;;;;;23.00;22.67;;;;;0.92;66.43;100069.66;5132601;27;45057;-83
2022/12/13 00:41:29;;;;;;;;;25.25;22.25;;;;;1.08;66.61;100087.88;5132258;27;45386;-83
2022/12/13 00:43:54;;;;;;;;;26.25;22.00;;;;;0.84;66.45;100052.75;5131988;27;45301;-82
2022/12/13 00:46:21;;;;;;;;;22.75;20.75;;;;;0.87;66.55;100065.88;5132539;27;45446;-83
2022/12/13 00:48:52;;;;;;;;;24.25;21.25;;;;;0.96;66.55;100077.69;5132507;27;45193;-83
2022/12/13 00:51:18;;;;;;;;;25.25;23.25;;;;;1.04;66.52;100088.53;5132705;27;45149;-82
2022/12/13 00:53:44;;;;;;;;;27.00;24.00;;;;;1.05;66.96;100086.84;5131705;27;45479;-81
2022/12/13 00:56:13;;;;;;;;;26.75;23.75;;;;;0.98;66.81;100081.25;5113855;27;46837;-82
2022/12/13 00:58:39;;;;;;;;;26.00;23.00;;;;;1.03;66.57;100090.22;5131372;27;45274;-82
2022/12/13 01:01:11;;;;;;;;;27.25;26.00;;;;;1.02;66.76;100083.25;5132494;27;45205;-82
2022/12/13 01:03:37;;;;;;;;;24.50;21.75;;;;;1.05;66.64;100084.25;5132361;27;45233;-82
2022/12/13 01:06:11;;;;;;;;;26.50;26.25;;;;;0.91;66.92;100065.28;5113115;27;47148;-82
2022/12/13 01:08:37;;;;;;;;;27.00;26.25;;;;;0.89;66.75;100069.47;5131604;27;45301;-83
2022/12/13 01:11:04;;;;;;;;;26.75;24.25;;;;;0.94;66.89;100087.06;5132296;27;45054;-82
2022/12/13 01:13:29;;;;;;;;;24.50;23.00;;;;;0.81;67.07;100069.00;5131849;27;44980;-83
2022/12/13 01:15:55;;;;;;;;;26.25;26.00;;;;;0.95;66.87;100088.84;5112050;27;46154;-84
2022/12/13 01:18:20;;;;;;;;;24.67;24.33;;;;;0.78;66.79;100058.44;5132133;27;50182;-83
2022/12/13 01:21:07;;;;;;;;;31.67;27.67;;;;;0.92;67.09;100086.06;5132245;27;45111;-83
2022/12/13 01:23:33;;;;;;;;;26.75;24.25;;;;;0.85;67.03;100072.66;5131304;27;45272;-83
2022/12/13 01:26:03;;;;;;;;;33.50;29.75;;;;;0.78;66.86;100061.03;5113062;27;47814;-84
2022/12/13 01:28:28;;;;;;;;;24.75;23.75;;;;;0.74;66.92;100046.16;5131590;27;45236;-83
2022/12/13 01:31:02;;;;;;;;;29.25;25.25;;;;;0.85;67.12;100058.03;5131216;27;45200;-82
2022/12/13 01:33:28;;;;;;;;;26.00;24.50;;;;;0.93;67.03;100068.84;5131342;27;45347;-84
2022/12/13 01:35:54;;;;;;;;;28.75;26.25;;;;;0.92;67.05;100070.53;5131592;27;45396;-83
2022/12/13 01:38:20;;;;;;;;;28.25;19.75;;;;;0.92;67.00;100070.53;5131707;27;45329;-83
2022/12/13 01:40:48;;;;;;;;;24.25;23.50;;;;;0.65;66.71;100014.53;5131481;27;45126;-83
2022/12/13 01:43:14;;;;;;;;;27.00;25.75;;;;;0.59;67.02;100006.38;5131264;27;44942;-84
2022/12/13 01:45:40;;;;;;;;;23.50;21.25;;;;;0.93;66.81;100072.31;5130734;27;45401;-82
2022/12/13 01:48:12;;;;;;;;;26.50;21.75;;;;;0.92;66.80;100073.13;5132014;27;45517;-84
2022/12/13 01:50:43;;;;;;;;;23.25;20.75;;;;;0.91;66.52;100066.16;5131723;27;45073;-84
2022/12/13 01:53:13;;;;;;;;;26.25;19.75;;;;;0.59;66.60;100017.66;5131486;27;45185;-84
2022/12/13 01:55:42;;;;;;;;;22.25;19.50;;;;;0.89;66.63;100077.25;5131603;27;45420;-84
2022/12/13 01:58:08;;;;;;;;;20.75;17.00;;;;;0.58;66.69;100015.84;5131810;27;45091;-84
2022/12/13 02:00:34;;;;;;;;;26.75;22.75;;;;;0.69;66.56;100037.19;5130788;27;45086;-83
2022/12/13 02:03:02;;;;;;;;;24.75;22.50;;;;;0.76;66.63;100049.72;5112633;27;45144;-83
2022/12/13 02:05:35;;;;;;;;;20.00;14.25;;;;;0.89;66.72;100083.31;5124311;27;45129;-83
2022/12/13 02:08:01;;;;;;;;;19.25;19.00;;;;;0.89;66.28;100083.31;5110237;27;45463;-84
2022/12/13 02:10:27;;;;;;;;;20.25;18.50;;;;;0.62;66.34;100029.84;5110895;27;45361;-84
2022/12/13 02:12:53;;;;;;;;;20.25;15.75;;;;;0.88;66.14;100083.19;5109949;27;45553;-83
2022/12/13 02:15:19;;;;;;;;;22.50;20.50;;;;;0.78;66.35;100071.38;5109976;27;45785;-84
2022/12/13 02:18:15;;;;;;;;;25.50;22.00;;;;;0.87;65.98;100078.81;5109854;27;45371;-84
2022/12/13 02:20:53;;;;;;;;;21.00;18.50;;;;;0.88;66.24;100084.06;5110315;27;45198;-84
2022/12/13 02:23:46;;;;;;;;;16.50;14.00;;;;;0.88;65.96;100071.16;5091743;27;45139;-82
2022/12/13 02:26:30;;;;;;;;;17.50;16.50;;;;;0.89;65.62;100077.25;5110416;27;45378;-84
2022/12/13 02:29:17;;;;;;;;;21.75;19.00;;;;;0.88;65.81;100078.91;5091438;27;45244;-84
2022/12/13 02:32:33;;;;;;;;;17.25;16.75;;;;;0.87;65.75;100071.94;5110070;27;44976;-83
2022/12/13 02:35:04;;;;;;;;;23.00;18.25;;;;;0.87;65.58;100074.53;5079961;27;45440;-83
2022/12/13 02:37:41;;;;;;;;;15.00;12.75;;;;;0.60;65.45;100031.47;5130462;27;45580;-83
2022/12/13 02:40:18;;;;;;;;;17.25;16.75;;;;;0.84;65.46;100069.19;5130783;27;45283;-83
2022/12/13 02:42:53;;;;;;;;;14.50;13.75;;;;;0.68;65.50;100040.56;5111898;27;45671;-82
2022/12/13 02:45:37;;;;;;;;;17.50;16.25;;;;;0.83;65.56;100077.72;5130325;27;45192;-84
2022/12/13 02:48:06;;;;;;;;;16.25;12.25;;;;;0.63;65.38;100034.22;5130752;27;45266;-83
2022/12/13 02:50:34;;;;;;;;;19.25;15.00;;;;;0.67;65.45;100036.19;5120732;27;45272;-83
2022/12/13 02:53:00;;;;;;;;;21.00;14.50;;;;;0.62;65.00;100024.69;5109642;27;45095;-82
2022/12/13 02:55:25;;;;;;;;;16.50;13.50;;;;;0.84;64.98;100056.25;5109615;27;45224;-83
2022/12/13 02:57:51;;;;;;;;;22.25;17.75;;;;;0.85;65.02;100057.16;5116140;27;45133;-84
2022/12/13 03:00:19;;;;;;;;;17.00;17.00;;;;;0.86;64.97;100064.09;5106726;27;45270;-83
2022/12/13 03:03:09;;;;;;;;;13.75;13.75;;;;;0.86;65.10;100053.75;5103543;27;45119;-83
2022/12/13 03:08:43;;;;;;;;;16.50;13.00;;;;;0.86;64.99;100070.16;5129676;27;45078;-81
2022/12/13 03:11:12;;;;;;;;;13.75;13.25;;;;;0.60;65.10;100013.38;5113238;27;45378;-82
2022/12/13 03:13:37;;;;;;;;;16.50;15.75;;;;;0.87;65.00;100053.84;5110568;27;45153;-82
2022/12/13 03:16:18;;;;;;;;;17.00;16.33;;;;;0.86;64.94;100049.47;5108953;27;45167;-82
2022/12/13 03:18:45;;;;;;;;;15.00;13.50;;;;;0.88;64.85;100050.44;5110159;27;45311;-81
2022/12/13 03:21:11;;;;;;;;;14.25;12.00;;;;;0.50;64.78;99984.34;5109762;27;45136;-80
2022/12/13 03:23:37;;;;;;;;;16.00;13.50;;;;;0.63;65.28;100011.84;5109271;27;45365;-81
2022/12/13 03:26:15;;;;;;;;;15.25;13.50;;;;;0.83;64.69;100041.50;5109507;27;45125;-81
2022/12/13 03:28:41;;;;;;;;;17.50;17.00;;;;;0.68;64.77;100014.72;5110621;27;45630;-82
2022/12/13 03:31:07;;;;;;;;;15.50;15.50;;;;;0.81;64.42;100030.19;5109201;27;45237;-82
2022/12/13 03:33:33;;;;;;;;;12.00;10.25;;;;;0.78;64.37;100027.41;5111351;27;45010;-81
2022/12/13 03:35:59;;;;;;;;;16.50;15.00;;;;;0.77;64.37;100031.69;5125292;27;45058;-82
2022/12/13 03:38:25;;;;;;;;;14.75;13.00;;;;;0.77;64.71;100033.38;5117524;27;45492;-82
2022/12/13 03:40:54;;;;;;;;;18.75;18.75;;;;;0.55;64.63;100001.84;5126184;27;45253;-82
2022/12/13 03:43:20;;;;;;;;;15.50;13.75;;;;;0.68;64.39;100017.28;5112065;27;45134;-82
2022/12/13 03:45:45;;;;;;;;;13.00;6.50;;;;;0.63;64.72;100022.19;5108583;27;45108;-82
2022/12/13 03:48:10;;;;;;;;;17.33;16.33;;;;;0.67;64.69;100036.19;5114916;27;63014;-82
2022/12/13 03:50:36;;;;;;;;;16.33;16.33;;;;;0.40;64.07;99994.91;5129367;27;47737;-82
2022/12/13 03:53:02;;;;;;;;;16.00;14.00;;;;;0.69;64.26;100051.03;5128749;27;45198;-82
2022/12/13 03:55:28;;;;;;;;;18.25;14.50;;;;;0.68;64.60;100046.63;5110557;27;45249;-82
2022/12/13 03:57:53;;;;;;;;;16.25;15.75;;;;;0.63;64.53;100037.69;5125623;27;45681;-82
2022/12/13 04:00:19;;;;;;;;;18.00;16.00;;;;;0.43;64.40;100002.84;5109496;27;45130;-82
2022/12/13 04:02:44;;;;;;;;;16.25;14.75;;;;;0.66;64.39;100024.06;5108927;27;45071;-82
2022/12/13 04:05:09;;;;;;;;;16.67;13.33;;;;;0.37;64.29;99979.22;5121943;27;50311;-82
2022/12/13 04:07:35;;;;;;;;;16.67;15.33;;;;;0.60;64.62;100022.00;5092421;27;63320;-83
2022/12/13 04:10:01;;;;;;;;;15.00;13.00;;;;;0.49;64.39;100007.50;5121744;27;45346;-82
2022/12/13 04:15:10;;;;;;;;;22.50;19.75;;;;;0.60;64.17;100032.34;5132930;27;45016;-82
2022/12/13 04:17:35;;;;;;;;;16.67;15.67;;;;;0.41;64.40;99995.81;5113042;27;65994;-82
2022/12/13 04:20:00;;;;;;;;;14.33;13.00;;;;;0.56;64.26;100029.47;5133308;27;45373;-82
2022/12/13 04:22:26;;;;;;;;;15.00;13.00;;;;;0.56;64.28;100032.06;5121627;27;45319;-82
2022/12/13 04:24:51;;;;;;;;;19.00;16.00;;;;;0.55;64.23;100025.13;5111736;27;45202;-82
2022/12/13 04:27:16;;;;;;;;;16.00;13.33;;;;;0.41;64.16;100000.97;5112080;27;57537;-82
2022/12/13 04:29:41;;;;;;;;;14.67;13.67;;;;;0.29;64.38;99977.81;5111629;27;44835;-82
2022/12/13 04:32:07;;;;;;;;;15.33;14.33;;;;;0.29;64.41;99985.56;5112174;27;47760;-82
2022/12/13 04:34:32;;;;;;;;;16.67;16.33;;;;;0.52;63.81;100021.53;5122461;27;45166;-81
2022/12/13 04:36:58;;;;;;;;;15.75;14.75;;;;;0.50;64.22;100007.63;5132198;27;45182;-82
2022/12/13 04:39:23;;;;;;;;;16.75;15.00;;;;;0.47;64.25;100006.53;5133128;27;44976;-82
2022/12/13 04:41:51;;;;;;;;;18.67;14.33;;;;;0.50;64.42;100017.97;5132326;27;57310;-81
2022/12/13 04:44:16;;;;;;;;;16.50;13.50;;;;;0.32;64.39;99983.19;5132377;27;45073;-82
2022/12/13 04:46:41;;;;;;;;;12.50;11.75;;;;;0.44;64.30;100003.75;5132304;27;45646;-81
2022/12/13 04:49:07;;;;;;;;;20.33;19.33;;;;;0.08;64.39;99948.97;5131991;27;59046;-82
2022/12/13 04:51:32;;;;;;;;;17.25;16.25;;;;;0.48;64.47;100005.72;5132434;27;45319;-82
2022/12/13 04:53:58;;;;;;;;;17.75;17.25;;;;;0.34;64.48;99976.41;5132229;27;44965;-81
2022/12/13 04:56:23;;;;;;;;;17.00;14.75;;;;;0.38;64.39;99983.56;5132648;27;45943;-80
2022/12/13 04:58:48;;;;;;;;;16.33;16.33;;;;;0.34;64.37;99980.69;5112475;27;56489;-81
2022/12/13 05:01:14;;;;;;;;;17.33;15.67;;;;;0.45;64.39;100008.13;5131892;27;48158;-82
2022/12/13 05:03:39;;;;;;;;;17.75;17.75;;;;;0.45;64.55;100005.56;5132220;27;45420;-81
2022/12/13 05:06:10;;;;;;;;;17.00;15.00;;;;;0.46;64.54;99999.56;5126074;27;45983;-81
2022/12/13 05:08:36;;;;;;;;;16.00;15.75;;;;;0.45;64.18;100005.56;5118845;27;45266;-81
2022/12/13 05:11:03;;;;;;;;;21.50;21.00;;;;;0.38;64.13;99986.16;5130555;27;45157;-81
2022/12/13 05:13:28;;;;;;;;;20.50;16.25;;;;;0.44;64.25;100001.16;5119776;27;45143;-82
2022/12/13 05:16:01;;;;;;;;;21.25;16.25;;;;;0.30;64.34;99973.59;5105602;27;45191;-81
2022/12/13 05:18:28;;;;;;;;;20.00;19.00;;;;;0.44;64.40;100002.06;5106535;27;45288;-81
2022/12/13 05:20:53;;;;;;;;;18.00;17.00;;;;;0.38;64.37;99996.50;5077983;28;45148;-82
2022/12/13 05:23:21;;;;;;;;;19.25;17.75;;;;;0.41;64.31;99996.69;5095189;27;45208;-82
2022/12/13 05:25:47;;;;;;;;;23.25;20.25;;;;;0.44;64.39;100002.06;5090331;27;45633;-82
2022/12/13 05:28:12;;;;;;;;;21.25;18.75;;;;;0.38;64.40;99990.44;5090342;28;45098;-82
2022/12/13 05:30:39;;;;;;;;;18.00;18.00;;;;;0.42;64.16;99998.47;5089671;27;45205;-81
2022/12/13 05:33:04;;;;;;;;;18.75;16.75;;;;;0.31;64.17;99975.38;5090428;28;45256;-81
2022/12/13 05:35:30;;;;;;;;;24.00;18.67;;;;;0.43;64.22;99999.38;5098125;27;45605;-81
2022/12/13 05:37:55;;;;;;;;;22.00;19.00;;;;;0.31;64.15;99977.94;5089709;28;54125;-81
2022/12/13 05:40:26;;;;;;;;;19.67;15.33;;;;;0.44;64.17;100012.41;5090434;27;45088;-81
2022/12/13 05:42:51;;;;;;;;;23.75;22.75;;;;;0.39;64.28;100003.44;5072277;28;45658;-82
2022/12/13 05:45:18;;;;;;;;;19.75;17.50;;;;;0.45;64.16;100015.88;5097727;27;45213;-81
2022/12/13 05:47:44;;;;;;;;;21.50;17.50;;;;;0.46;64.10;100015.97;5114034;27;45760;-82
2022/12/13 05:50:09;;;;;;;;;18.75;16.75;;;;;0.37;64.26;99997.31;5111850;27;45466;-82
2022/12/13 05:52:35;;;;;;;;;17.00;16.75;;;;;0.23;64.12;99969.69;5110711;27;45132;-82
2022/12/13 05:55:00;;;;;;;;;23.75;19.75;;;;;0.38;64.40;99999.09;5110326;27;45240;-81
2022/12/13 05:57:26;;;;;;;;;18.33;16.00;;;;;0.35;63.66;99995.44;5109959;27;49278;-81
2022/12/13 05:59:51;;;;;;;;;17.75;17.75;;;;;0.40;64.33;100001.78;5110117;27;45192;-81
2022/12/13 06:02:16;;;;;;;;;16.00;15.50;;;;;0.50;63.97;100017.97;5110086;27;45204;-82
2022/12/13 06:04:42;;;;;;;;;19.75;17.25;;;;;0.28;64.01;99983.81;5108500;27;46032;-81
2022/12/13 06:07:07;;;;;;;;;16.00;15.75;;;;;0.52;63.98;100031.84;5110429;27;45410;-82
2022/12/13 06:09:32;;;;;;;;;28.67;21.00;;;;;0.40;63.72;100009.53;5109549;27;61183;-81
2022/12/13 06:11:58;;;;;;;;;20.67;20.00;;;;;0.34;64.17;99999.69;5109436;27;50861;-81
2022/12/13 06:14:23;;;;;;;;;17.67;17.00;;;;;0.47;64.10;100017.75;5110080;27;46072;-82
2022/12/13 06:16:50;;;;;;;;;19.33;18.67;;;;;0.59;63.93;100040.91;5119657;27;45334;-82
2022/12/13 06:19:15;;;;;;;;;22.25;20.75;;;;;0.20;63.66;99980.75;5110319;27;45098;-82
2022/12/13 06:21:40;;;;;;;;;17.33;17.33;;;;;0.48;64.10;100021.22;5109706;27;49801;-80
2022/12/13 06:24:07;;;;;;;;;19.33;17.00;;;;;0.34;64.09;99989.34;5109024;27;67014;-81
2022/12/13 06:26:33;;;;;;;;;21.50;16.25;;;;;0.58;63.95;100021.00;5121942;27;45310;-83
2022/12/13 06:28:58;;;;;;;;;16.50;15.75;;;;;0.48;63.86;100006.59;5131029;27;45082;-82
2022/12/13 06:31:26;;;;;;;;;24.50;20.75;;;;;0.55;63.96;100023.41;5130952;27;45234;-81
2022/12/13 06:33:51;;;;;;;;;17.50;16.25;;;;;0.74;63.90;100046.16;5125459;27;45254;-80
2022/12/13 06:36:17;;;;;;;;;27.33;23.33;;;;;0.64;63.93;100030.81;5110516;27;45102;-82
2022/12/13 06:38:43;;;;;;;;;20.75;18.75;;;;;0.50;63.77;99997.28;5109321;27;49657;-81
2022/12/13 06:41:13;;;;;;;;;27.33;24.33;;;;;0.78;63.71;100037.75;5109920;27;45019;-81
2022/12/13 06:43:43;;;;;;;;;19.50;17.25;;;;;0.72;63.78;100032.22;5111357;27;45178;-85
2022/12/13 06:46:09;;;;;;;;;17.50;14.25;;;;;0.82;63.80;100033.66;5130510;27;45110;-82
2022/12/13 06:48:35;;;;;;;;;23.50;20.75;;;;;0.82;63.73;100033.66;5128983;27;45370;-81
2022/12/13 06:51:03;;;;;;;;;20.50;20.50;;;;;0.80;63.71;100033.59;5129875;27;44958;-82
2022/12/13 06:53:30;;;;;;;;;16.25;16.25;;;;;0.82;63.58;100028.50;5110829;27;48095;-81
2022/12/13 06:55:55;;;;;;;;;17.50;16.25;;;;;-0.01;63.52;99887.28;5107961;27;45527;-81
2022/12/13 06:58:21;;;;;;;;;23.75;22.00;;;;;0.56;63.02;99993.28;5088497;27;45155;-81
2022/12/13 07:00:47;;;;;;;;;17.50;17.50;;;;;0.50;63.26;99979.19;5098837;27;45342;-82
2022/12/13 07:03:14;;;;;;;;;20.75;17.00;;;;;0.75;63.61;100011.72;5109666;27;45535;-82
2022/12/13 07:05:39;;;;;;;;;14.00;13.00;;;;;0.72;63.45;100014.09;5108661;27;45114;-83
2022/12/13 07:08:05;;;;;;;;;20.67;19.33;;;;;0.76;63.43;100010.91;5109473;27;45344;-81
2022/12/13 07:10:31;;;;;;;;;24.50;23.00;;;;;0.74;63.30;100004.78;5109113;27;45456;-83
2022/12/13 07:12:56;;;;;;;;;23.50;19.75;;;;;0.48;63.53;99959.19;5109288;27;45406;-83
2022/12/13 07:15:21;;;;;;;;;22.67;19.33;;;;;0.61;63.64;99986.69;5110417;27;45407;-82
2022/12/13 07:17:51;;;;;;;;;21.67;17.67;;;;;0.75;63.40;100019.47;5103315;27;45255;-81
2022/12/13 07:20:18;;;;;;;;;19.50;17.00;;;;;0.42;63.52;99969.16;5126799;27;45259;-81
2022/12/13 07:22:43;;;;;;;;;19.75;18.75;;;;;0.32;63.61;99951.28;5129435;27;45775;-82
2022/12/13 07:25:08;;;;;;;;;19.50;17.25;;;;;0.76;63.42;100026.44;5117931;27;45028;-82
2022/12/13 07:27:34;;;;;;;;;22.00;19.00;;;;;0.74;63.46;100018.59;5108424;27;44990;-82
2022/12/13 07:30:00;;;;;;;;;19.00;17.50;;;;;0.70;63.28;100032.13;5108904;27;45186;-81
2022/12/13 07:32:26;;;;;;;;;24.00;20.25;;;;;0.34;63.40;99968.66;5113556;27;45682;-82
2022/12/13 07:34:51;;;;;;;;;25.25;24.00;;;;;0.51;63.41;100004.22;5115313;27;45159;-83
2022/12/13 07:37:17;;;;;;;;;22.00;19.67;;;;;0.72;63.46;100040.84;5114322;27;45673;-83
2022/12/13 07:39:42;;;;;;;;;20.75;19.00;;;;;0.54;63.60;100000.91;5100973;27;45436;-82
2022/12/13 07:42:08;;;;;;;;;25.25;22.50;;;;;0.63;63.37;100023.88;5107806;27;46495;-82
2022/12/13 07:44:33;;;;;;;;;23.25;19.50;;;;;0.73;63.60;100050.41;5110236;27;45438;-83
2022/12/13 07:46:58;;;;;;;;;21.75;20.00;;;;;0.61;63.28;100025.50;5095252;27;45642;-81
2022/12/13 07:49:24;;;;;;;;;25.00;23.33;;;;;0.71;63.29;100040.78;5097629;27;53167;-82
2022/12/13 07:51:49;;;;;;;;;23.00;23.00;;;;;0.80;63.46;100061.16;5089042;27;59144;-83
2022/12/13 07:54:14;;;;;;;;;22.00;18.67;;;;;0.74;63.41;100051.31;5090409;27;49705;-83
2022/12/13 07:56:39;;;;;;;;;17.75;16.25;;;;;0.84;63.56;100065.69;5089421;27;45330;-82
2022/12/13 07:59:05;;;;;;;;;20.67;19.33;;;;;0.69;63.39;100050.09;5096783;27;45836;-82
2022/12/13 08:01:33;;;;;;;;;22.00;21.67;;;;;0.83;63.35;100084.59;5111367;27;45478;-83
2022/12/13 08:04:00;;;;;;;;;22.75;20.25;;;;;0.88;63.36;100089.25;5111252;27;45308;-83
2022/12/13 08:06:25;;;;;;;;;22.25;18.50;;;;;0.86;63.33;100075.34;5108044;27;45060;-83
2022/12/13 08:08:54;;;;;;;;;25.00;23.00;;;;;0.78;63.04;100064.50;5095286;27;45435;-83
2022/12/13 08:11:20;;;;;;;;;28.00;23.00;;;;;0.92;63.00;100075.72;5093986;27;45439;-82
2022/12/13 08:13:45;;;;;;;;;26.00;21.25;;;;;0.94;63.08;100078.41;5095868;27;45397;-83
2022/12/13 08:16:13;;;;;;;;;28.00;26.00;;;;;0.93;63.30;100076.59;5098212;27;45418;-83
2022/12/13 08:18:39;;;;;;;;;19.25;18.25;;;;;1.00;63.27;100091.72;5108689;27;45476;-83
2022/12/13 08:21:08;;;;;;;;;24.25;22.75;;;;;1.02;63.22;100092.69;5110230;27;47145;-81
2022/12/13 08:23:33;;;;;;;;;25.50;24.25;;;;;0.93;63.16;100080.06;5101913;27;45308;-83
2022/12/13 08:26:00;;;;;;;;;25.25;24.25;;;;;1.06;63.25;100097.28;5107717;27;45240;-82
2022/12/13 08:28:26;;;;;;;;;22.75;22.00;;;;;1.07;63.05;100091.28;5109192;27;45601;-81
2022/12/13 08:30:52;;;;;;;;;23.00;20.25;;;;;0.89;63.13;100053.97;5121863;27;45241;-82
2022/12/13 08:33:19;;;;;;;;;21.50;20.00;;;;;1.11;62.95;100082.91;5116699;27;45094;-83
2022/12/13 08:35:45;;;;;;;;;28.25;26.00;;;;;1.07;62.81;100093.88;5107027;27;45391;-81
2022/12/13 08:38:10;;;;;;;;;26.50;25.00;;;;;1.12;62.67;100092.47;5115783;27;45100;-81
2022/12/13 08:40:36;;;;;;;;;28.25;23.00;;;;;1.03;62.65;100072.13;5115171;27;45217;-81
2022/12/13 08:43:02;;;;;;;;;23.25;19.75;;;;;1.17;62.99;100093.63;5116193;27;45065;-81
2022/12/13 08:45:27;;;;;;;;;32.50;28.75;;;;;1.18;62.72;100089.34;5122541;27;45048;-82
2022/12/13 08:47:56;;;;;;;;;27.00;24.00;;;;;0.97;62.81;100053.59;5116973;27;45338;-82
2022/12/13 08:50:22;;;;;;;;;27.00;25.00;;;;;1.23;62.80;100088.84;5113482;27;46453;-83
2022/12/13 08:52:47;;;;;;;;;28.00;24.67;;;;;1.25;62.86;100094.13;5105341;27;53916;-82
2022/12/13 08:55:14;;;;;;;;;29.00;27.00;;;;;1.27;62.78;100087.31;5109635;27;45622;-82
2022/12/13 08:57:40;;;;;;;;;28.25;26.00;;;;;1.28;62.62;100092.63;5106076;27;45153;-82
2022/12/13 09:00:10;;;;;;;;;27.00;26.50;;;;;1.21;62.62;100059.38;5106442;27;45369;-82
2022/12/13 09:02:35;;;;;;;;;32.50;25.50;;;;;1.30;62.78;100072.00;5110086;27;45064;-82
2022/12/13 09:05:00;;;;;;;;;23.67;22.00;;;;;1.25;62.53;100045.81;5110884;27;57220;-81
2022/12/13 09:07:26;;;;;;;;;28.25;24.75;;;;;1.45;62.40;100080.66;5110970;27;45202;-81
2022/12/13 09:09:51;;;;;;;;;29.75;25.50;;;;;1.50;62.75;100071.47;5109746;27;66074;-81
2022/12/13 09:12:17;;;;;;;;;23.00;22.00;;;;;1.51;62.12;100065.50;5111005;27;53289;-81
2022/12/13 09:14:42;;;;;;;;;32.50;26.75;;;;;1.32;62.37;100028.06;5110489;27;45190;-81
2022/12/13 09:17:07;;;;;;;;;29.33;27.00;;;;;1.51;62.14;100065.50;5109966;27;52694;-81
2022/12/13 09:19:33;;;;;;;;;19.67;19.67;;;;;1.52;62.29;100067.28;5104432;27;53908;-80
2022/12/13 09:21:58;;;;;;;;;30.00;27.33;;;;;1.22;61.94;100013.69;5131651;27;45037;-80
2022/12/13 09:24:24;;;;;;;;;27.00;24.00;;;;;1.50;61.95;100061.13;5119945;27;45194;-82
2022/12/13 09:26:49;;;;;;;;;26.25;24.75;;;;;1.31;61.94;100034.94;5110283;27;45224;-81
2022/12/13 09:29:15;;;;;;;;;23.00;23.00;;;;;1.47;61.82;100057.44;5110500;27;54857;-82
2022/12/13 09:31:40;;;;;;;;;33.25;28.50;;;;;1.52;61.81;100059.50;5107376;27;45364;-82
2022/12/13 09:34:07;;;;;;;;;25.00;23.25;;;;;1.47;61.33;100047.09;5108899;27;45595;-81
2022/12/13 09:36:32;;;;;;;;;25.25;24.75;;;;;1.56;61.57;100065.75;5107686;27;45355;-81
2022/12/13 09:38:58;;;;;;;;;31.00;27.75;;;;;1.59;61.41;100058.19;5103319;27;45449;-81
2022/12/13 09:41:32;;;;;;;;;30.75;26.00;;;;;1.58;61.37;100052.91;5108663;27;45488;-82
2022/12/13 09:44:04;;;;;;;;;30.50;28.25;;;;;1.64;61.42;100061.06;5110758;27;45349;-82
2022/12/13 09:46:35;;;;;;;;;27.50;23.25;;;;;1.80;61.40;100084.44;5110256;27;45394;-82
2022/12/13 09:49:03;;;;;;;;;29.25;26.25;;;;;1.61;61.29;100051.41;5104583;27;45473;-82
2022/12/13 09:51:32;;;;;;;;;30.25;25.50;;;;;1.61;61.37;100056.56;5104584;27;45552;-81
2022/12/13 09:53:59;;;;;;;;;23.75;22.75;;;;;1.52;61.43;100032.72;5099633;27;45704;-82
2022/12/13 09:56:24;;;;;;;;;26.25;23.00;;;;;1.75;61.26;100066.03;5094374;27;45676;-82
2022/12/13 09:58:55;;;;;;;;;32.00;29.75;;;;;1.66;61.52;100049.06;5096007;27;45724;-81
2022/12/13 10:01:21;;;;;;;;;26.25;25.00;;;;;1.78;61.32;100062.75;5103737;27;45520;-82
2022/12/13 10:03:50;;;;;;;;;26.75;23.50;;;;;1.61;61.29;100029.78;5090804;27;45462;-82
2022/12/13 10:06:19;;;;;;;;;24.00;22.25;;;;;1.70;61.17;100038.97;5091701;27;45540;-82
2022/12/13 10:08:56;;;;;;;;;30.25;28.25;;;;;1.78;61.21;100044.63;5104045;27;46621;-81
2022/12/13 10:11:22;;;;;;;;;27.00;24.25;;;;;1.81;61.03;100053.44;5123126;27;45299;-82
2022/12/13 10:13:56;;;;;;;;;26.00;22.67;;;;;1.72;61.20;100033.88;5130394;27;44961;-81
2022/12/13 10:16:21;;;;;;;;;25.25;25.00;;;;;1.91;60.97;100060.06;5123167;27;45173;-81
2022/12/13 10:18:47;;;;;;;;;28.33;26.67;;;;;1.79;61.06;100044.69;5103422;27;47101;-81
2022/12/13 10:21:39;;;;;;;;;25.75;23.25;;;;;1.79;61.07;100047.28;5125486;27;45052;-81
2022/12/13 10:24:14;;;;;;;;;27.50;23.50;;;;;1.97;60.92;100075.97;5097192;27;45358;-81
2022/12/13 10:26:39;;;;;;;;;27.00;22.50;;;;;2.01;60.81;100079.63;5111142;27;45497;-81
2022/12/13 10:29:06;;;;;;;;;24.50;20.25;;;;;2.00;60.79;100049.31;5111633;27;46552;-81
2022/12/13 10:31:43;;;;;;;;;26.00;23.75;;;;;2.14;60.63;100057.91;5110278;27;45995;-82
2022/12/13 10:34:24;;;;;;;;;25.50;24.00;;;;;2.22;60.71;100057.53;5104589;27;45471;-82
2022/12/13 10:36:50;;;;;;;;;22.75;22.75;;;;;2.21;60.40;100040.16;5090783;27;45482;-81
2022/12/13 10:39:26;;;;;;;;;37.25;32.00;;;;;2.32;60.01;100051.16;5090478;27;46216;-81
2022/12/13 10:42:03;;;;;;;;;26.25;23.75;;;;;2.23;60.09;100041.16;5090368;27;45716;-82
2022/12/13 10:44:28;;;;;;;;;32.00;25.00;;;;;2.17;60.08;100034.72;5090610;27;45398;-82
2022/12/13 10:47:08;;;;;;;;;32.00;24.00;;;;;2.26;60.15;100048.19;5089711;27;45662;-82
2022/12/13 10:49:39;;;;;;;;;28.75;25.25;;;;;2.02;60.02;100019.19;5089950;27;45520;-82
2022/12/13 10:52:18;;;;;;;;;31.50;26.75;;;;;2.14;60.00;100029.38;5090911;27;45585;-82
2022/12/13 10:54:47;;;;;;;;;26.25;24.75;;;;;2.29;59.88;100041.50;5089940;27;45576;-82
2022/12/13 10:57:13;;;;;;;;;25.25;24.00;;;;;2.33;59.75;100033.09;5090755;27;45464;-82
2022/12/13 10:59:39;;;;;;;;;19.25;18.00;;;;;2.35;59.47;100027.09;5090046;27;46228;-82
2022/12/13 11:02:34;;;;;;;;;23.25;23.25;;;;;2.35;59.97;100025.38;5083096;27;45819;-83
2022/12/13 11:05:21;;;;;;;;;24.00;23.00;;;;;2.27;60.04;99990.38;5099844;27;45591;-81
2022/12/13 11:07:47;;;;;;;;;25.25;22.25;;;;;2.45;60.09;100006.94;5089922;27;45701;-81
2022/12/13 11:10:25;;;;;;;;;24.67;23.67;;;;;2.58;59.97;100004.19;5090309;27;61157;-81
2022/12/13 11:12:59;;;;;;;;;26.75;24.50;;;;;2.61;59.74;99993.13;5090197;27;45700;-80
2022/12/13 11:15:25;;;;;;;;;15.25;14.50;;;;;2.75;59.42;100001.63;5089882;27;46086;-82
2022/12/13 11:18:05;;;;;;;;;23.75;21.75;;;;;2.72;59.27;99983.31;5089942;27;45576;-83
2022/12/13 11:20:34;;;;;;;;;25.50;23.00;;;;;2.99;59.53;99995.13;5099274;27;46805;-82
2022/12/13 11:23:22;;;;;;;;;25.00;23.00;;;;;3.14;59.35;100002.81;5109893;27;45684;-83
2022/12/13 11:25:55;;;;;;;;;22.25;21.00;;;;;3.09;58.83;99962.75;5095704;27;45672;-82
2022/12/13 11:28:26;;;;;;;;;22.50;21.25;;;;;3.38;58.81;99991.91;5111240;27;45401;-82